Aviation Digital Data Service (ADDS)

Output produced by METARs form (1952 UTC 14 December 2018)
found at http://www.aviationweather.gov/metar/data/
 
METAR text: EPLL 141930Z 07006KT 5000 -SN BR SCT007 BKN010 M00/M02 Q1026
Conditions at: EPLL (LODZ/LUBLINEK , PL) observed 1930 UTC 14 December 2018
Temperature: 0.0°C (32°F)
Dewpoint: -2.0°C (28°F) [RH = 86%]
Pressure (altimeter): 30.30 inches Hg (1026.0 mb)
Winds: from the ENE (70 degrees) at 7 MPH (6 knots; 3.1 m/s)
Visibility: 3 miles ( 5 km)
Ceiling: 1000 feet AGL
Clouds: scattered clouds at 700 feet AGL
broken clouds at 1000 feet AGL
Weather: -SN BR  (light snow, mist)

METAR text: EPLL 141900Z 05007KT 5000 -SN BR SCT007 BKN008 M00/M02 Q1026
Conditions at: EPLL (LODZ/LUBLINEK , PL) observed 1900 UTC 14 December 2018
Temperature: 0.0°C (32°F)
Dewpoint: -2.0°C (28°F) [RH = 86%]
Pressure (altimeter): 30.30 inches Hg (1026.0 mb)
Winds: from the NE (50 degrees) at 8 MPH (7 knots; 3.6 m/s)
Visibility: 3 miles ( 5 km)
Ceiling: 800 feet AGL
Clouds: scattered clouds at 700 feet AGL
broken clouds at 800 feet AGL
Weather: -SN BR  (light snow, mist)

Forecast for: EPLL (LODZ/LUBLINEK , PL)
Text: TAF EPLL 141730Z 1418/1518 07005KT 9999 -SN BKN018
Forecast period: 1800 UTC 14 December 2018 to 1800 UTC 15 December 2018
Forecast type: FROM: standard forecast or significant change
Winds: from the ENE (70 degrees) at 6 MPH (5 knots; 2.6 m/s)
Visibility: 6 or more miles 10+ km)
Ceiling: 1800 feet AGL
Clouds: broken clouds at 1800 feet AGL
Weather: -SN  (light snow)
Text: TEMPO 1418/1518 4000 -SNRA BR BKN008 BKN012
Forecast period: 1800 UTC 14 December 2018 to 1800 UTC 15 December 2018
Forecast type: TEMPORARY: The following changes expected for less than half the time period
Visibility: 2.49 miles (4.01 km)
Ceiling: 800 feet AGL
Clouds: broken clouds at 800 feet AGL
broken clouds at 1200 feet AGL
Weather: -SN -RA BR  (light snow, light rain, mist)